Meteo Giornale » Osservazioni meteo Stati Uniti (USA) » The Dalles Columbia Gorge Reg
ore: 21:53 - Osservazioni Meteo The Dalles Columbia Gorge Reg
Lat. 45° 37' N Lon. 121° 10' W Alt. 75 metri s.l.m.
22 °C
Sereno
Temp. 24 Ore
9 °C
32 °C
Ovest/Sud-Ovest
7.4 Km/h
Dew point 4 °C
Umidità 30 %
Visibilità 10 Km
Il sole sorge alle ore 06:25
Il sole tramonta alle ore 19:44
| Data e Ora | Cielo e Fenomeni | T °C | DP °C | Um. % | Pres. hPa | Vis. km | Vento km/h | |
|---|---|---|---|---|---|---|---|---|
| Oggi h: 21:53 | Sereno | 22 | 4 | 30 | 1006 | 10 | O/SO 7.4 | |
| Oggi h: 20:53 | Sereno | 23 | 4 | 28 | 1006 | 10 | N 5.5 | |
| Oggi h: 19:53 | Sereno | 26 | 6 | 27 | 1005 | 10 | N 5.5 | |
| Oggi h: 18:53 | Sereno | 30 | 2 | 16 | 1005 | 10 | N 0 | |
| Oggi h: 17:53 | Sereno | 31 | 2 | 15 | 1005 | 10 | E/NE 7.4 | |
| Oggi h: 16:53 | Sereno | 32 | 2 | 14 | 1006 | 10 | E 7.4 | |
| Oggi h: 15:53 | Sereno | 31 | 3 | 16 | 1007 | 10 | N 5.5 | |
| Oggi h: 14:53 | Sereno | 31 | 3 | 16 | 1008 | 10 | N 0 | |
| Oggi h: 13:53 | Sereno | 29 | 4 | 20 | 1009 | 10 | E 9.3 | |
| Oggi h: 12:53 | Sereno | 27 | 7 | 28 | 1010 | 10 | N 0 | |
| Oggi h: 11:53 | Sereno | 23 | 7 | 35 | 1011 | 10 | N 5.5 | |
| Oggi h: 10:53 | Sereno | 22 | 8 | 40 | 1013 | 10 | N 5.5 | |
| Oggi h: 09:53 | Sereno | 18 | 9 | 55 | 1013 | 10 | N 0 | |
| Oggi h: 08:53 | Sereno | 16 | 8 | 58 | 1014 | 10 | N 0 | |
| Oggi h: 07:53 | Sereno | 13 | 8 | 71 | 1014 | 10 | N 5.5 | |
| Oggi h: 06:53 | Sereno | 9 | 7 | 87 | 1014 | 10 | N 0 | |
| Oggi h: 05:53 | Sereno | 11 | 7 | 76 | 1013 | 10 | SE 9.3 | |
| Oggi h: 04:53 | Sereno | 12 | 7 | 71 | 1013 | 10 | SE 11.1 | |
| Oggi h: 03:53 | Sereno | 13 | 8 | 71 | 1013 | 10 | SE 9.3 | |
| Oggi h: 02:53 | Sereno | 13 | 8 | 71 | 1013 | 10 | N 0 | |
| Oggi h: 01:53 | Sereno | 14 | 8 | 67 | 1014 | 10 | N 5.5 | |
| Oggi h: 00:53 | Sereno | 17 | 8 | 55 | 1014 | 10 | N 0 | |
| Ieri h: 23:53 | Sereno | 17 | 9 | 59 | 1014 | 10 | N 0 | |
| Ieri h: 22:53 | Sereno | 20 | 9 | 49 | 1014 | 10 | O 11.1 | |



